Terminal Aerodrome Forecast
Issued by NWS

Home | Current Version | Previous Version | Text Only | Print | Product List | Glossary On
Versions: 1 2 3 4 5 6 7 8 9 10 11 12 13 14 15 16
000
FTUS46 KLOX 310500 RRA
TAFOXR
TAF
KOXR 310548Z 3106/0106 VRB03KT P6SM SCT250
     FM311100 VRB03KT 4SM BR SCT005 SCT250
     FM311600 26006KT 6SM HZ SCT250
     FM312000 28010KT P6SM SKC
     FM010400 VRB04KT P6SM SKC=

USA.gov is the U.S. government's official web portal to all federal, state and local government web resources and services.